sensor_id;sensor_type;location;lat;lon;timestamp;pressure;altitude;pressure_sealevel;temperature;humidity
6680;BME280;3376;42.664;23.346;2023-03-05T00:00:00;94079.66;;;7.72;100.00
6680;BME280;3376;42.664;23.346;2023-03-05T00:02:27;94080.97;;;7.68;100.00
6680;BME280;3376;42.664;23.346;2023-03-05T00:04:54;94077.28;;;7.63;100.00
6680;BME280;3376;42.664;23.346;2023-03-05T00:07:21;94064.38;;;7.40;100.00
6680;BME280;3376;42.664;23.346;2023-03-05T00:09:47;94061.03;;;7.62;100.00
6680;BME280;3376;42.664;23.346;2023-03-05T00:12:15;93914.78;;;6.72;100.00
6680;BME280;3376;42.664;23.346;2023-03-05T00:14:43;94053.00;;;7.57;100.00
6680;BME280;3376;42.664;23.346;2023-03-05T00:17:09;94064.41;;;7.63;100.00
6680;BME280;3376;42.664;23.346;2023-03-05T00:19:36;94023.75;;;7.42;100.00
6680;BME280;3376;42.664;23.346;2023-03-05T00:22:03;94065.72;;;7.59;100.00
6680;BME280;3376;42.664;23.346;2023-03-05T00:24:30;94054.31;;;7.53;100.00
6680;BME280;3376;42.664;23.346;2023-03-05T00:26:57;94036.09;;;7.55;100.00
6680;BME280;3376;42.664;23.346;2023-03-05T00:29:25;94014.72;;;7.46;100.00
6680;BME280;3376;42.664;23.346;2023-03-05T00:31:52;94037.84;;;7.62;100.00
6680;BME280;3376;42.664;23.346;2023-03-05T00:34:19;93808.97;;;6.37;100.00
6680;BME280;3376;42.664;23.346;2023-03-05T00:36:47;94040.09;;;7.88;100.00
6680;BME280;3376;42.664;23.346;2023-03-05T00:39:15;94034.78;;;7.89;100.00
6680;BME280;3376;42.664;23.346;2023-03-05T00:41:43;94047.72;;;8.04;100.00
6680;BME280;3376;42.664;23.346;2023-03-05T00:44:09;94050.19;;;7.97;100.00
6680;BME280;3376;42.664;23.346;2023-03-05T00:46:38;94037.97;;;7.91;100.00
6680;BME280;3376;42.664;23.346;2023-03-05T00:49:05;94012.13;;;7.77;100.00
6680;BME280;3376;42.664;23.346;2023-03-05T00:51:32;93969.25;;;7.53;100.00
6680;BME280;3376;42.664;23.346;2023-03-05T00:53:59;94032.38;;;7.88;100.00
6680;BME280;3376;42.664;23.346;2023-03-05T00:56:26;94033.28;;;7.72;100.00
6680;BME280;3376;42.664;23.346;2023-03-05T00:58:53;94023.59;;;7.74;100.00
6680;BME280;3376;42.664;23.346;2023-03-05T01:01:20;94034.84;;;7.73;100.00
6680;BME280;3376;42.664;23.346;2023-03-05T01:03:49;93952.66;;;7.33;100.00
6680;BME280;3376;42.664;23.346;2023-03-05T01:06:16;94023.31;;;7.69;100.00
6680;BME280;3376;42.664;23.346;2023-03-05T01:08:43;94016.81;;;7.73;100.00
6680;BME280;3376;42.664;23.346;2023-03-05T01:11:11;94004.28;;;7.70;100.00
6680;BME280;3376;42.664;23.346;2023-03-05T01:13:38;94013.75;;;7.78;100.00
6680;BME280;3376;42.664;23.346;2023-03-05T01:16:05;94021.00;;;7.74;100.00
6680;BME280;3376;42.664;23.346;2023-03-05T01:18:32;93990.81;;;7.60;100.00
6680;BME280;3376;42.664;23.346;2023-03-05T01:21:01;94020.31;;;7.80;100.00
6680;BME280;3376;42.664;23.346;2023-03-05T01:23:29;94003.44;;;7.78;100.00
6680;BME280;3376;42.664;23.346;2023-03-05T01:25:57;94022.59;;;7.75;100.00
6680;BME280;3376;42.664;23.346;2023-03-05T01:28:24;94015.28;;;7.87;100.00
6680;BME280;3376;42.664;23.346;2023-03-05T01:30:51;94003.59;;;7.76;100.00
6680;BME280;3376;42.664;23.346;2023-03-05T01:33:18;93996.78;;;7.61;100.00
6680;BME280;3376;42.664;23.346;2023-03-05T01:35:45;93973.31;;;7.48;100.00
6680;BME280;3376;42.664;23.346;2023-03-05T01:38:14;94000.22;;;7.76;100.00
6680;BME280;3376;42.664;23.346;2023-03-05T01:40:41;94008.16;;;7.66;100.00
6680;BME280;3376;42.664;23.346;2023-03-05T01:43:21;93988.78;;;7.48;100.00
6680;BME280;3376;42.664;23.346;2023-03-05T01:46:20;94005.97;;;7.55;100.00
6680;BME280;3376;42.664;23.346;2023-03-05T01:48:49;94009.66;;;7.61;100.00
6680;BME280;3376;42.664;23.346;2023-03-05T01:51:19;93898.75;;;6.93;100.00
6680;BME280;3376;42.664;23.346;2023-03-05T01:53:49;94004.34;;;7.54;100.00
6680;BME280;3376;42.664;23.346;2023-03-05T01:56:16;94005.56;;;7.44;100.00
6680;BME280;3376;42.664;23.346;2023-03-05T01:58:44;93800.06;;;6.17;100.00
6680;BME280;3376;42.664;23.346;2023-03-05T02:01:11;93848.78;;;6.49;100.00
6680;BME280;3376;42.664;23.346;2023-03-05T02:03:38;94008.63;;;7.39;100.00
6680;BME280;3376;42.664;23.346;2023-03-05T02:06:06;94005.41;;;7.45;100.00
6680;BME280;3376;42.664;23.346;2023-03-05T02:08:33;94006.06;;;7.39;100.00
6680;BME280;3376;42.664;23.346;2023-03-05T02:11:01;94005.09;;;7.40;100.00
6680;BME280;3376;42.664;23.346;2023-03-05T02:13:30;94003.13;;;7.42;100.00
6680;BME280;3376;42.664;23.346;2023-03-05T02:15:59;94002.19;;;7.43;100.00
6680;BME280;3376;42.664;23.346;2023-03-05T02:18:26;94006.03;;;7.47;100.00
6680;BME280;3376;42.664;23.346;2023-03-05T02:21:00;93986.78;;;7.27;100.00
6680;BME280;3376;42.664;23.346;2023-03-05T02:23:29;93992.22;;;7.40;100.00
6680;BME280;3376;42.664;23.346;2023-03-05T02:25:57;94008.63;;;7.47;100.00
6680;BME280;3376;42.664;23.346;2023-03-05T02:28:26;93995.56;;;7.41;100.00
6680;BME280;3376;42.664;23.346;2023-03-05T02:30:56;93962.97;;;7.25;99.72
6680;BME280;3376;42.664;23.346;2023-03-05T02:33:23;93986.91;;;7.34;100.00
6680;BME280;3376;42.664;23.346;2023-03-05T02:35:49;93969.03;;;7.09;100.00
6680;BME280;3376;42.664;23.346;2023-03-05T02:38:19;94004.47;;;7.38;100.00
6680;BME280;3376;42.664;23.346;2023-03-05T02:40:46;94007.34;;;7.43;100.00
6680;BME280;3376;42.664;23.346;2023-03-05T02:43:13;94005.88;;;7.41;100.00
6680;BME280;3376;42.664;23.346;2023-03-05T02:45:40;93998.31;;;7.47;100.00
6680;BME280;3376;42.664;23.346;2023-03-05T02:48:06;94002.41;;;7.56;100.00
6680;BME280;3376;42.664;23.346;2023-03-05T02:50:33;93993.81;;;7.41;100.00
6680;BME280;3376;42.664;23.346;2023-03-05T02:53:00;94014.34;;;7.57;100.00
6680;BME280;3376;42.664;23.346;2023-03-05T02:55:29;94016.63;;;7.52;100.00
6680;BME280;3376;42.664;23.346;2023-03-05T02:57:55;94016.94;;;7.49;100.00
6680;BME280;3376;42.664;23.346;2023-03-05T03:00:23;94007.34;;;7.43;100.00
6680;BME280;3376;42.664;23.346;2023-03-05T03:02:50;94000.81;;;7.25;100.00
6680;BME280;3376;42.664;23.346;2023-03-05T03:05:17;94013.03;;;7.31;100.00
6680;BME280;3376;42.664;23.346;2023-03-05T03:07:44;94006.09;;;7.31;100.00
6680;BME280;3376;42.664;23.346;2023-03-05T03:10:11;94002.94;;;7.21;100.00
6680;BME280;3376;42.664;23.346;2023-03-05T03:12:41;94000.53;;;7.11;100.00
6680;BME280;3376;42.664;23.346;2023-03-05T03:15:10;94016.50;;;7.07;100.00
6680;BME280;3376;42.664;23.346;2023-03-05T03:17:38;94006.56;;;7.04;100.00
6680;BME280;3376;42.664;23.346;2023-03-05T03:20:07;94005.56;;;7.05;100.00
6680;BME280;3376;42.664;23.346;2023-03-05T03:22:35;93997.50;;;7.08;100.00
6680;BME280;3376;42.664;23.346;2023-03-05T03:25:03;93909.91;;;6.47;100.00
6680;BME280;3376;42.664;23.346;2023-03-05T03:27:30;94013.97;;;6.99;100.00
6680;BME280;3376;42.664;23.346;2023-03-05T03:29:58;93998.34;;;7.00;100.00
6680;BME280;3376;42.664;23.346;2023-03-05T03:32:29;94015.22;;;7.03;100.00
6680;BME280;3376;42.664;23.346;2023-03-05T03:34:56;94015.25;;;6.95;100.00
6680;BME280;3376;42.664;23.346;2023-03-05T03:37:23;94010.47;;;6.84;100.00
6680;BME280;3376;42.664;23.346;2023-03-05T03:39:50;94005.16;;;6.77;100.00
6680;BME280;3376;42.664;23.346;2023-03-05T03:42:17;93997.78;;;6.74;100.00
6680;BME280;3376;42.664;23.346;2023-03-05T03:44:43;94011.47;;;6.75;100.00
6680;BME280;3376;42.664;23.346;2023-03-05T03:47:12;94012.44;;;6.66;100.00
6680;BME280;3376;42.664;23.346;2023-03-05T03:49:38;94008.28;;;6.65;100.00
6680;BME280;3376;42.664;23.346;2023-03-05T03:52:05;93974.56;;;6.36;100.00
6680;BME280;3376;42.664;23.346;2023-03-05T03:54:32;94017.28;;;6.61;100.00
6680;BME280;3376;42.664;23.346;2023-03-05T03:56:59;94013.91;;;6.68;100.00
6680;BME280;3376;42.664;23.346;2023-03-05T03:59:26;94012.09;;;6.69;100.00
6680;BME280;3376;42.664;23.346;2023-03-05T04:01:53;94008.88;;;6.67;100.00
6680;BME280;3376;42.664;23.346;2023-03-05T04:04:21;94015.53;;;6.61;100.00
6680;BME280;3376;42.664;23.346;2023-03-05T04:06:48;94010.53;;;6.52;100.00
6680;BME280;3376;42.664;23.346;2023-03-05T04:09:15;94018.75;;;6.47;100.00
6680;BME280;3376;42.664;23.346;2023-03-05T04:11:41;94025.00;;;6.45;100.00
6680;BME280;3376;42.664;23.346;2023-03-05T04:14:08;93997.88;;;6.18;100.00
6680;BME280;3376;42.664;23.346;2023-03-05T04:16:35;94018.28;;;6.28;100.00
6680;BME280;3376;42.664;23.346;2023-03-05T04:19:02;94021.47;;;6.38;100.00
6680;BME280;3376;42.664;23.346;2023-03-05T04:21:30;94019.56;;;6.32;100.00
6680;BME280;3376;42.664;23.346;2023-03-05T04:23:56;94019.56;;;6.40;100.00
6680;BME280;3376;42.664;23.346;2023-03-05T04:26:23;94024.06;;;6.38;100.00
6680;BME280;3376;42.664;23.346;2023-03-05T04:28:50;94025.38;;;6.34;100.00
6680;BME280;3376;42.664;23.346;2023-03-05T04:31:17;94024.38;;;6.35;100.00
6680;BME280;3376;42.664;23.346;2023-03-05T04:33:44;94021.19;;;6.41;100.00
6680;BME280;3376;42.664;23.346;2023-03-05T04:36:11;94018.13;;;6.37;100.00
6680;BME280;3376;42.664;23.346;2023-03-05T04:38:39;94014.09;;;6.35;100.00
6680;BME280;3376;42.664;23.346;2023-03-05T04:41:06;94017.31;;;6.37;100.00
6680;BME280;3376;42.664;23.346;2023-03-05T04:43:33;94014.25;;;6.41;100.00
6680;BME280;3376;42.664;23.346;2023-03-05T04:46:00;94020.22;;;6.42;100.00
6680;BME280;3376;42.664;23.346;2023-03-05T04:48:27;94001.25;;;6.35;100.00
6680;BME280;3376;42.664;23.346;2023-03-05T04:50:53;94009.91;;;6.26;100.00
6680;BME280;3376;42.664;23.346;2023-03-05T04:53:22;94009.13;;;6.25;100.00
6680;BME280;3376;42.664;23.346;2023-03-05T04:55:53;93991.44;;;6.14;100.00
6680;BME280;3376;42.664;23.346;2023-03-05T04:58:20;93862.00;;;5.27;100.00
6680;BME280;3376;42.664;23.346;2023-03-05T05:00:46;93950.50;;;5.88;100.00
6680;BME280;3376;42.664;23.346;2023-03-05T05:03:13;94003.19;;;6.25;100.00
6680;BME280;3376;42.664;23.346;2023-03-05T05:05:40;93960.13;;;6.11;100.00
6680;BME280;3376;42.664;23.346;2023-03-05T05:08:07;94012.50;;;6.34;100.00
6680;BME280;3376;42.664;23.346;2023-03-05T05:10:34;94001.88;;;6.21;100.00
6680;BME280;3376;42.664;23.346;2023-03-05T05:13:04;94003.34;;;6.23;100.00
6680;BME280;3376;42.664;23.346;2023-03-05T05:15:31;94012.50;;;6.18;100.00
6680;BME280;3376;42.664;23.346;2023-03-05T05:17:57;94014.75;;;6.13;100.00
6680;BME280;3376;42.664;23.346;2023-03-05T05:20:24;94015.09;;;6.10;100.00
6680;BME280;3376;42.664;23.346;2023-03-05T05:22:51;93992.44;;;5.89;100.00
6680;BME280;3376;42.664;23.346;2023-03-05T05:25:18;94025.22;;;6.11;100.00
6680;BME280;3376;42.664;23.346;2023-03-05T05:27:44;94016.53;;;6.04;100.00
6680;BME280;3376;42.664;23.346;2023-03-05T05:30:13;94017.66;;;6.10;100.00
6680;BME280;3376;42.664;23.346;2023-03-05T05:32:40;94013.94;;;6.12;100.00
6680;BME280;3376;42.664;23.346;2023-03-05T05:35:08;94024.72;;;6.16;100.00
6680;BME280;3376;42.664;23.346;2023-03-05T05:37:35;94014.09;;;6.11;100.00
6680;BME280;3376;42.664;23.346;2023-03-05T05:40:02;94025.69;;;6.31;100.00
6680;BME280;3376;42.664;23.346;2023-03-05T05:42:30;93375.22;;;2.25;100.00
6680;BME280;3376;42.664;23.346;2023-03-05T05:44:57;94017.63;;;6.26;100.00
6680;BME280;3376;42.664;23.346;2023-03-05T05:47:25;94024.41;;;6.27;100.00
6680;BME280;3376;42.664;23.346;2023-03-05T05:49:52;94028.28;;;6.31;100.00
6680;BME280;3376;42.664;23.346;2023-03-05T05:52:19;94025.00;;;6.45;100.00
6680;BME280;3376;42.664;23.346;2023-03-05T05:54:46;94009.41;;;6.54;100.00
6680;BME280;3376;42.664;23.346;2023-03-05T05:57:13;94037.84;;;6.69;98.74
6680;BME280;3376;42.664;23.346;2023-03-05T05:59:40;94036.38;;;6.74;97.83
6680;BME280;3376;42.664;23.346;2023-03-05T06:02:07;94023.22;;;6.69;97.34
6680;BME280;3376;42.664;23.346;2023-03-05T06:04:36;94026.25;;;6.81;96.42
6680;BME280;3376;42.664;23.346;2023-03-05T06:07:04;94045.19;;;6.96;93.83
6680;BME280;3376;42.664;23.346;2023-03-05T06:09:33;94049.00;;;7.08;94.45
6680;BME280;3376;42.664;23.346;2023-03-05T06:12:00;94037.47;;;6.88;93.99
6680;BME280;3376;42.664;23.346;2023-03-05T06:14:27;94012.25;;;6.83;93.94
6680;BME280;3376;42.664;23.346;2023-03-05T06:16:54;94001.31;;;6.81;91.19
6680;BME280;3376;42.664;23.346;2023-03-05T06:19:21;94036.75;;;7.18;91.25
6680;BME280;3376;42.664;23.346;2023-03-05T06:21:49;94043.34;;;7.21;91.33
6680;BME280;3376;42.664;23.346;2023-03-05T06:24:15;94052.13;;;7.34;90.52
6680;BME280;3376;42.664;23.346;2023-03-05T06:26:43;94018.34;;;7.29;87.99
6680;BME280;3376;42.664;23.346;2023-03-05T06:29:11;94059.38;;;7.39;87.69
6680;BME280;3376;42.664;23.346;2023-03-05T06:31:38;94049.44;;;7.28;87.57
6680;BME280;3376;42.664;23.346;2023-03-05T06:34:05;94030.63;;;7.19;87.09
6680;BME280;3376;42.664;23.346;2023-03-05T06:36:31;94050.03;;;7.38;87.77
6680;BME280;3376;42.664;23.346;2023-03-05T06:38:59;94053.13;;;7.33;86.41
6680;BME280;3376;42.664;23.346;2023-03-05T06:41:29;94059.53;;;7.37;86.68
6680;BME280;3376;42.664;23.346;2023-03-05T06:43:58;94056.41;;;7.50;85.37
6680;BME280;3376;42.664;23.346;2023-03-05T06:46:28;94061.22;;;7.61;85.11
6680;BME280;3376;42.664;23.346;2023-03-05T06:48:57;94062.03;;;7.84;84.16
6680;BME280;3376;42.664;23.346;2023-03-05T06:51:26;94058.88;;;7.74;82.70
6680;BME280;3376;42.664;23.346;2023-03-05T06:53:54;94060.72;;;7.88;82.73
6680;BME280;3376;42.664;23.346;2023-03-05T06:56:22;94092.91;;;8.22;83.78
6680;BME280;3376;42.664;23.346;2023-03-05T06:58:50;94061.50;;;8.42;79.06
6680;BME280;3376;42.664;23.346;2023-03-05T07:01:17;94070.94;;;8.72;78.08
6680;BME280;3376;42.664;23.346;2023-03-05T07:03:47;94055.44;;;8.86;77.03
6680;BME280;3376;42.664;23.346;2023-03-05T07:06:14;94058.31;;;9.20;74.44
6680;BME280;3376;42.664;23.346;2023-03-05T07:08:42;94018.84;;;9.12;73.51
6680;BME280;3376;42.664;23.346;2023-03-05T07:11:09;94082.09;;;9.74;71.88
6680;BME280;3376;42.664;23.346;2023-03-05T07:13:38;94053.91;;;10.15;70.47
6680;BME280;3376;42.664;23.346;2023-03-05T07:16:05;94087.47;;;10.93;66.78
6680;BME280;3376;42.664;23.346;2023-03-05T07:18:32;94077.31;;;11.25;64.69
6680;BME280;3376;42.664;23.346;2023-03-05T07:21:01;94076.59;;;11.04;64.80
6680;BME280;3376;42.664;23.346;2023-03-05T07:23:28;94066.50;;;10.88;65.84
6680;BME280;3376;42.664;23.346;2023-03-05T07:25:55;94074.22;;;11.09;64.43
6680;BME280;3376;42.664;23.346;2023-03-05T07:28:21;94059.16;;;10.91;64.35
6680;BME280;3376;42.664;23.346;2023-03-05T07:30:55;94081.34;;;11.00;64.20
6680;BME280;3376;42.664;23.346;2023-03-05T07:33:22;94069.41;;;11.06;63.63
6680;BME280;3376;42.664;23.346;2023-03-05T07:35:49;94066.72;;;10.65;66.66
6680;BME280;3376;42.664;23.346;2023-03-05T07:38:16;94064.22;;;10.50;67.79
6680;BME280;3376;42.664;23.346;2023-03-05T07:40:43;94071.03;;;10.58;66.96
6680;BME280;3376;42.664;23.346;2023-03-05T07:43:10;94090.09;;;10.50;69.08
6680;BME280;3376;42.664;23.346;2023-03-05T07:45:38;94072.28;;;10.05;69.87
6680;BME280;3376;42.664;23.346;2023-03-05T07:48:07;94078.94;;;9.93;70.05
6680;BME280;3376;42.664;23.346;2023-03-05T07:50:34;94073.00;;;10.14;72.62
6680;BME280;3376;42.664;23.346;2023-03-05T07:53:01;94074.97;;;10.12;71.86
6680;BME280;3376;42.664;23.346;2023-03-05T07:55:28;94072.66;;;10.02;71.64
6680;BME280;3376;42.664;23.346;2023-03-05T07:57:54;94074.22;;;9.82;72.23
6680;BME280;3376;42.664;23.346;2023-03-05T08:00:21;94078.16;;;9.78;73.53
6680;BME280;3376;42.664;23.346;2023-03-05T08:02:48;94059.47;;;9.47;72.94
6680;BME280;3376;42.664;23.346;2023-03-05T08:05:17;94065.91;;;9.22;74.59
6680;BME280;3376;42.664;23.346;2023-03-05T08:07:43;94081.06;;;9.25;76.51
6680;BME280;3376;42.664;23.346;2023-03-05T08:10:10;94064.84;;;9.16;75.95
6680;BME280;3376;42.664;23.346;2023-03-05T08:12:37;94084.97;;;9.21;75.47
6680;BME280;3376;42.664;23.346;2023-03-05T08:15:05;94072.16;;;9.13;78.08
6680;BME280;3376;42.664;23.346;2023-03-05T08:17:31;94065.47;;;9.18;76.78
6680;BME280;3376;42.664;23.346;2023-03-05T08:19:58;94072.84;;;9.07;78.48
6680;BME280;3376;42.664;23.346;2023-03-05T08:22:31;94075.09;;;9.10;79.13
6680;BME280;3376;42.664;23.346;2023-03-05T08:24:58;94071.59;;;9.03;79.41
6680;BME280;3376;42.664;23.346;2023-03-05T08:27:25;94016.53;;;8.13;79.12
6680;BME280;3376;42.664;23.346;2023-03-05T08:29:52;94068.09;;;8.81;79.65
6680;BME280;3376;42.664;23.346;2023-03-05T08:32:19;94069.44;;;8.77;81.68
6680;BME280;3376;42.664;23.346;2023-03-05T08:34:46;94070.56;;;8.75;81.23
6680;BME280;3376;42.664;23.346;2023-03-05T08:37:13;94054.06;;;8.61;82.80
6680;BME280;3376;42.664;23.346;2023-03-05T08:39:41;94066.41;;;8.74;80.53
6680;BME280;3376;42.664;23.346;2023-03-05T08:42:08;94055.91;;;8.90;82.52
6680;BME280;3376;42.664;23.346;2023-03-05T08:44:35;94052.59;;;8.81;80.17
6680;BME280;3376;42.664;23.346;2023-03-05T08:47:01;94051.63;;;8.97;80.99
6680;BME280;3376;42.664;23.346;2023-03-05T08:49:28;94063.13;;;9.09;79.12
6680;BME280;3376;42.664;23.346;2023-03-05T08:51:55;94057.44;;;9.13;79.34
6680;BME280;3376;42.664;23.346;2023-03-05T08:54:21;94028.66;;;9.02;78.28
6680;BME280;3376;42.664;23.346;2023-03-05T08:56:49;94044.00;;;9.18;77.01
6680;BME280;3376;42.664;23.346;2023-03-05T08:59:16;94043.38;;;9.01;77.54
6680;BME280;3376;42.664;23.346;2023-03-05T09:01:43;94048.53;;;9.01;76.14
6680;BME280;3376;42.664;23.346;2023-03-05T09:04:10;94042.91;;;9.27;76.56
6680;BME280;3376;42.664;23.346;2023-03-05T09:06:36;94003.97;;;9.28;75.31
6680;BME280;3376;42.664;23.346;2023-03-05T09:09:05;94036.53;;;9.73;74.78
6680;BME280;3376;42.664;23.346;2023-03-05T09:11:31;93986.72;;;9.50;75.08
6680;BME280;3376;42.664;23.346;2023-03-05T09:14:02;94041.13;;;9.92;72.08
6680;BME280;3376;42.664;23.346;2023-03-05T09:16:28;94031.97;;;9.96;70.80
6680;BME280;3376;42.664;23.346;2023-03-05T09:18:55;94033.03;;;10.02;68.34
6680;BME280;3376;42.664;23.346;2023-03-05T09:21:22;94015.13;;;10.00;67.73
6680;BME280;3376;42.664;23.346;2023-03-05T09:23:49;93996.97;;;9.79;67.84
6680;BME280;3376;42.664;23.346;2023-03-05T09:26:17;93836.91;;;9.00;68.94
6680;BME280;3376;42.664;23.346;2023-03-05T09:28:44;94002.94;;;10.15;66.63
6680;BME280;3376;42.664;23.346;2023-03-05T09:31:13;94026.53;;;10.27;66.88
6680;BME280;3376;42.664;23.346;2023-03-05T09:33:40;94022.06;;;10.14;66.01
6680;BME280;3376;42.664;23.346;2023-03-05T09:36:16;93969.47;;;9.93;65.98
6680;BME280;3376;42.664;23.346;2023-03-05T09:38:44;94027.16;;;10.50;66.23
6680;BME280;3376;42.664;23.346;2023-03-05T09:41:16;94027.66;;;10.66;63.64
6680;BME280;3376;42.664;23.346;2023-03-05T09:43:53;94016.78;;;10.50;64.71
6680;BME280;3376;42.664;23.346;2023-03-05T09:46:30;94017.41;;;10.52;63.20
6680;BME280;3376;42.664;23.346;2023-03-05T09:49:06;94011.16;;;10.68;63.10
6680;BME280;3376;42.664;23.346;2023-03-05T09:51:38;94015.69;;;10.59;62.34
6680;BME280;3376;42.664;23.346;2023-03-05T09:54:11;94006.94;;;10.66;60.83
6680;BME280;3376;42.664;23.346;2023-03-05T09:56:41;93970.22;;;10.56;61.49
6680;BME280;3376;42.664;23.346;2023-03-05T09:59:19;93976.56;;;10.82;60.16
6680;BME280;3376;42.664;23.346;2023-03-05T10:01:51;93986.81;;;10.96;57.78
6680;BME280;3376;42.664;23.346;2023-03-05T10:04:22;93994.75;;;11.22;59.82
6680;BME280;3376;42.664;23.346;2023-03-05T10:06:55;93997.56;;;11.81;58.78
6680;BME280;3376;42.664;23.346;2023-03-05T10:09:34;93986.47;;;12.07;55.97
6680;BME280;3376;42.664;23.346;2023-03-05T10:12:09;93976.47;;;12.10;54.80
6680;BME280;3376;42.664;23.346;2023-03-05T10:14:39;93980.66;;;11.98;58.16
6680;BME280;3376;42.664;23.346;2023-03-05T10:17:23;93973.88;;;11.97;56.75
6680;BME280;3376;42.664;23.346;2023-03-05T10:20:02;93962.31;;;12.00;55.80
6680;BME280;3376;42.664;23.346;2023-03-05T10:22:31;93969.06;;;11.88;57.16
6680;BME280;3376;42.664;23.346;2023-03-05T10:25:13;93956.13;;;12.46;54.43
6680;BME280;3376;42.664;23.346;2023-03-05T10:27:47;93943.28;;;12.90;55.66
6680;BME280;3376;42.664;23.346;2023-03-05T10:30:25;93943.59;;;13.27;56.47
6680;BME280;3376;42.664;23.346;2023-03-05T10:33:05;93942.25;;;13.62;55.86
6680;BME280;3376;42.664;23.346;2023-03-05T10:35:52;93935.66;;;14.95;92.65
6680;BME280;3376;42.664;23.346;2023-03-05T10:41:36;93924.63;;;14.33;48.00
6680;BME280;3376;42.664;23.346;2023-03-05T10:44:10;93924.22;;;13.98;49.95
6680;BME280;3376;42.664;23.346;2023-03-05T10:46:40;93900.84;;;13.91;49.59
6680;BME280;3376;42.664;23.346;2023-03-05T10:49:16;93934.72;;;14.16;49.06
6680;BME280;3376;42.664;23.346;2023-03-05T10:51:48;93881.00;;;13.59;47.92
6680;BME280;3376;42.664;23.346;2023-03-05T10:54:22;93915.28;;;13.50;50.93
6680;BME280;3376;42.664;23.346;2023-03-05T10:57:01;93903.69;;;12.88;47.09
6680;BME280;3376;42.664;23.346;2023-03-05T10:59:28;93886.59;;;12.61;49.53
6680;BME280;3376;42.664;23.346;2023-03-05T11:02:01;93907.56;;;12.53;49.13
6680;BME280;3376;42.664;23.346;2023-03-05T11:04:33;93894.59;;;12.47;50.91
6680;BME280;3376;42.664;23.346;2023-03-05T11:07:05;93894.97;;;12.57;49.58
6680;BME280;3376;42.664;23.346;2023-03-05T11:09:33;93887.56;;;12.73;51.01
6680;BME280;3376;42.664;23.346;2023-03-05T11:12:15;93881.00;;;12.58;49.82
6680;BME280;3376;42.664;23.346;2023-03-05T11:14:44;93884.81;;;12.29;51.45
6680;BME280;3376;42.664;23.346;2023-03-05T11:17:29;93878.22;;;12.33;53.28
6680;BME280;3376;42.664;23.346;2023-03-05T11:20:29;93882.22;;;12.29;63.85
6680;BME280;3376;42.664;23.346;2023-03-05T11:23:05;93871.44;;;12.26;65.79
6680;BME280;3376;42.664;23.346;2023-03-05T11:25:35;93877.97;;;12.67;56.25
6680;BME280;3376;42.664;23.346;2023-03-05T11:28:18;93864.72;;;12.75;53.26
6680;BME280;3376;42.664;23.346;2023-03-05T11:30:55;93873.31;;;12.82;59.10
6680;BME280;3376;42.664;23.346;2023-03-05T11:33:22;93873.69;;;12.99;61.38
6680;BME280;3376;42.664;23.346;2023-03-05T11:35:52;93876.06;;;13.00;53.53
6680;BME280;3376;42.664;23.346;2023-03-05T11:38:21;93865.28;;;13.04;49.80
6680;BME280;3376;42.664;23.346;2023-03-05T11:40:50;93846.16;;;12.72;48.93
6680;BME280;3376;42.664;23.346;2023-03-05T11:43:20;93862.41;;;12.54;50.20
6680;BME280;3376;42.664;23.346;2023-03-05T11:45:50;93827.09;;;12.34;55.02
6680;BME280;3376;42.664;23.346;2023-03-05T11:48:20;93839.75;;;12.74;53.44
6680;BME280;3376;42.664;23.346;2023-03-05T11:50:53;93845.41;;;12.65;55.30
6680;BME280;3376;42.664;23.346;2023-03-05T11:53:24;93831.69;;;12.95;58.43
6680;BME280;3376;42.664;23.346;2023-03-05T11:55:56;93828.91;;;13.35;53.58
6680;BME280;3376;42.664;23.346;2023-03-05T11:58:30;93684.34;;;12.52;50.78
6680;BME280;3376;42.664;23.346;2023-03-05T12:01:00;93815.22;;;13.46;51.84
6680;BME280;3376;42.664;23.346;2023-03-05T12:03:31;93816.91;;;13.65;47.57
6680;BME280;3376;42.664;23.346;2023-03-05T12:06:04;93820.97;;;14.10;49.15
6680;BME280;3376;42.664;23.346;2023-03-05T12:08:36;93806.19;;;14.47;46.13
6680;BME280;3376;42.664;23.346;2023-03-05T12:11:08;93774.84;;;14.89;49.40
6680;BME280;3376;42.664;23.346;2023-03-05T12:13:41;93801.75;;;15.19;50.13
6680;BME280;3376;42.664;23.346;2023-03-05T12:16:17;93795.09;;;15.05;43.70
6680;BME280;3376;42.664;23.346;2023-03-05T12:18:57;93804.03;;;15.27;44.24
6680;BME280;3376;42.664;23.346;2023-03-05T12:21:32;93791.56;;;15.29;44.62
6680;BME280;3376;42.664;23.346;2023-03-05T12:24:02;93774.22;;;15.35;46.39
6680;BME280;3376;42.664;23.346;2023-03-05T12:26:52;93796.56;;;15.61;40.76
6680;BME280;3376;42.664;23.346;2023-03-05T12:29:28;93795.03;;;15.42;40.59
6680;BME280;3376;42.664;23.346;2023-03-05T12:31:56;93785.75;;;15.27;41.60
6680;BME280;3376;42.664;23.346;2023-03-05T12:34:55;93781.91;;;15.00;43.36
6680;BME280;3376;42.664;23.346;2023-03-05T12:37:58;93785.88;;;15.21;45.31
6680;BME280;3376;42.664;23.346;2023-03-05T12:40:26;93706.63;;;14.74;44.39
6680;BME280;3376;42.664;23.346;2023-03-05T12:42:58;93771.03;;;15.03;42.07
6680;BME280;3376;42.664;23.346;2023-03-05T12:45:36;93782.19;;;15.10;41.67
6680;BME280;3376;42.664;23.346;2023-03-05T12:48:41;93776.59;;;14.59;41.40
6680;BME280;3376;42.664;23.346;2023-03-05T12:51:28;93763.16;;;14.01;42.51
6680;BME280;3376;42.664;23.346;2023-03-05T12:56:43;93756.88;;;13.60;43.31
6680;BME280;3376;42.664;23.346;2023-03-05T12:59:12;93770.22;;;13.70;43.84
6680;BME280;3376;42.664;23.346;2023-03-05T13:01:44;93764.47;;;13.61;43.98
6680;BME280;3376;42.664;23.346;2023-03-05T13:04:15;93764.59;;;13.48;52.99
6680;BME280;3376;42.664;23.346;2023-03-05T13:06:44;93762.38;;;13.52;46.12
6680;BME280;3376;42.664;23.346;2023-03-05T13:09:17;93771.41;;;13.12;46.91
6680;BME280;3376;42.664;23.346;2023-03-05T13:11:47;93768.31;;;12.90;45.95
6680;BME280;3376;42.664;23.346;2023-03-05T13:14:34;93766.47;;;12.59;46.66
6680;BME280;3376;42.664;23.346;2023-03-05T13:17:28;93737.91;;;11.89;47.52
6680;BME280;3376;42.664;23.346;2023-03-05T13:19:56;93768.84;;;11.91;48.06
6680;BME280;3376;42.664;23.346;2023-03-05T13:22:23;93761.66;;;11.73;50.14
6680;BME280;3376;42.664;23.346;2023-03-05T13:25:14;93727.28;;;11.06;49.93
6680;BME280;3376;42.664;23.346;2023-03-05T13:27:42;93759.63;;;11.29;50.22
6680;BME280;3376;42.664;23.346;2023-03-05T13:30:23;93734.28;;;11.12;50.89